sensor_id;sensor_type;location;lat;lon;timestamp;pressure;altitude;pressure_sealevel;temperature;humidity
3132;BME280;62090;52.330;9.104;2023-02-20T03:56:42;101529.94;;;7.57;100.00
3132;BME280;62090;52.330;9.104;2023-02-20T03:59:32;101410.34;;;7.14;100.00
3132;BME280;62090;52.330;9.104;2023-02-20T09:50:29;101330.31;;;8.30;100.00
3132;BME280;62090;52.330;9.104;2023-02-20T10:28:07;100981.38;;;6.59;100.00
3132;BME280;62090;52.330;9.104;2023-02-20T11:14:34;100973.78;;;6.59;100.00
3132;BME280;62090;52.330;9.104;2023-02-20T13:14:22;101056.59;;;8.42;100.00
3132;BME280;62090;52.330;9.104;2023-02-20T13:20:23;101171.59;;;9.27;100.00
3132;BME280;62090;52.330;9.104;2023-02-20T13:22:58;101215.13;;;9.59;100.00
3132;BME280;62090;52.330;9.104;2023-02-20T13:25:50;101169.59;;;9.43;100.00
3132;BME280;62090;52.330;9.104;2023-02-20T13:28:33;101202.78;;;9.69;100.00
3132;BME280;62090;52.330;9.104;2023-02-20T13:31:17;101200.06;;;9.65;100.00
3132;BME280;62090;52.330;9.104;2023-02-20T13:33:50;101205.06;;;9.62;100.00
3132;BME280;62090;52.330;9.104;2023-02-20T13:36:39;101168.03;;;9.46;100.00
3132;BME280;62090;52.330;9.104;2023-02-20T13:42:33;101166.34;;;9.47;100.00
3132;BME280;62090;52.330;9.104;2023-02-20T13:45:35;101201.69;;;9.63;100.00
3132;BME280;62090;52.330;9.104;2023-02-20T13:48:37;101176.78;;;9.54;100.00
3132;BME280;62090;52.330;9.104;2023-02-20T13:51:30;101176.16;;;9.60;100.00
3132;BME280;62090;52.330;9.104;2023-02-20T13:54:24;101203.88;;;9.76;100.00
3132;BME280;62090;52.330;9.104;2023-02-20T13:56:59;101188.38;;;9.70;100.00
3132;BME280;62090;52.330;9.104;2023-02-20T13:59:33;101186.78;;;9.73;100.00
3132;BME280;62090;52.330;9.104;2023-02-20T14:02:15;101151.41;;;9.56;100.00
3132;BME280;62090;52.330;9.104;2023-02-20T14:04:56;101157.88;;;9.46;100.00
3132;BME280;62090;52.330;9.104;2023-02-20T14:07:31;101156.88;;;9.43;100.00
3132;BME280;62090;52.330;9.104;2023-02-20T14:10:06;101149.09;;;9.14;100.00
3132;BME280;62090;52.330;9.104;2023-02-20T14:12:44;101149.88;;;9.37;100.00
3132;BME280;62090;52.330;9.104;2023-02-20T16:37:07;100891.63;;;7.55;100.00
3132;BME280;62090;52.330;9.104;2023-02-20T17:08:55;101214.09;;;9.54;100.00
3132;BME280;62090;52.330;9.104;2023-02-20T17:11:47;101052.44;;;8.67;100.00
3132;BME280;62090;52.330;9.104;2023-02-20T17:14:31;101131.63;;;9.01;100.00
3132;BME280;62090;52.330;9.104;2023-02-20T17:17:09;101231.03;;;9.53;100.00
3132;BME280;62090;52.330;9.104;2023-02-20T17:42:07;101023.47;;;8.39;100.00
3132;BME280;62090;52.330;9.104;2023-02-20T17:45:11;101124.25;;;8.85;100.00
3132;BME280;62090;52.330;9.104;2023-02-20T17:47:56;101141.56;;;8.95;100.00
3132;BME280;62090;52.330;9.104;2023-02-20T17:50:27;101216.88;;;9.38;100.00
3132;BME280;62090;52.330;9.104;2023-02-20T17:52:57;101107.97;;;8.80;100.00
3132;BME280;62090;52.330;9.104;2023-02-20T17:55:27;101040.84;;;8.51;100.00
3132;BME280;62090;52.330;9.104;2023-02-20T18:01:01;101179.06;;;9.23;100.00
3132;BME280;62090;52.330;9.104;2023-02-20T18:27:22;101171.66;;;10.02;100.00
3132;BME280;62090;52.330;9.104;2023-02-20T18:29:52;101199.84;;;9.83;100.00
3132;BME280;62090;52.330;9.104;2023-02-20T18:32:22;101196.38;;;9.81;100.00
3132;BME280;62090;52.330;9.104;2023-02-20T18:34:52;101171.94;;;9.60;100.00
3132;BME280;62090;52.330;9.104;2023-02-20T18:37:21;101178.78;;;9.63;100.00
3132;BME280;62090;52.330;9.104;2023-02-20T18:39:51;101133.06;;;9.41;100.00
3132;BME280;62090;52.330;9.104;2023-02-20T18:42:23;101166.91;;;9.62;100.00
3132;BME280;62090;52.330;9.104;2023-02-20T18:44:53;101184.75;;;9.63;100.00
3132;BME280;62090;52.330;9.104;2023-02-20T18:47:23;101178.19;;;9.70;100.00
3132;BME280;62090;52.330;9.104;2023-02-20T18:49:53;101183.56;;;9.78;100.00
3132;BME280;62090;52.330;9.104;2023-02-20T18:52:23;101181.16;;;9.58;100.00
3132;BME280;62090;52.330;9.104;2023-02-20T18:54:52;101179.66;;;9.63;100.00
3132;BME280;62090;52.330;9.104;2023-02-20T18:57:25;101131.34;;;9.40;100.00
3132;BME280;62090;52.330;9.104;2023-02-20T18:59:54;101092.97;;;9.10;100.00
3132;BME280;62090;52.330;9.104;2023-02-20T19:02:24;101146.69;;;9.43;100.00
3132;BME280;62090;52.330;9.104;2023-02-20T19:04:54;101172.31;;;9.71;100.00
3132;BME280;62090;52.330;9.104;2023-02-20T19:07:24;101173.38;;;9.78;100.00
3132;BME280;62090;52.330;9.104;2023-02-20T19:09:55;101152.53;;;9.64;100.00
3132;BME280;62090;52.330;9.104;2023-02-20T19:12:27;101112.38;;;9.31;100.00
3132;BME280;62090;52.330;9.104;2023-02-20T19:14:57;101151.66;;;9.63;100.00
3132;BME280;62090;52.330;9.104;2023-02-20T19:17:30;101164.28;;;9.60;100.00
3132;BME280;62090;52.330;9.104;2023-02-20T19:20:00;101129.09;;;9.49;100.00
3132;BME280;62090;52.330;9.104;2023-02-20T19:22:30;101159.56;;;9.71;100.00
3132;BME280;62090;52.330;9.104;2023-02-20T19:25:00;101151.50;;;9.59;100.00
3132;BME280;62090;52.330;9.104;2023-02-20T19:27:32;101141.91;;;9.52;100.00
3132;BME280;62090;52.330;9.104;2023-02-20T19:30:03;101143.66;;;9.53;100.00
3132;BME280;62090;52.330;9.104;2023-02-20T19:32:33;101161.31;;;9.48;100.00
3132;BME280;62090;52.330;9.104;2023-02-20T19:35:03;101119.97;;;9.30;100.00
3132;BME280;62090;52.330;9.104;2023-02-20T19:37:33;101143.66;;;9.53;100.00
3132;BME280;62090;52.330;9.104;2023-02-20T19:40:05;101126.63;;;9.50;100.00
3132;BME280;62090;52.330;9.104;2023-02-20T19:42:39;101142.09;;;9.56;100.00
3132;BME280;62090;52.330;9.104;2023-02-20T19:45:09;101134.47;;;9.56;100.00
3132;BME280;62090;52.330;9.104;2023-02-20T19:47:39;101144.75;;;9.59;100.00
3132;BME280;62090;52.330;9.104;2023-02-20T19:50:09;101133.38;;;9.50;100.00
3132;BME280;62090;52.330;9.104;2023-02-20T19:52:39;101123.47;;;9.57;100.00
3132;BME280;62090;52.330;9.104;2023-02-20T19:55:15;101129.63;;;9.64;100.00
3132;BME280;62090;52.330;9.104;2023-02-20T19:57:47;101134.88;;;9.68;100.00
3132;BME280;62090;52.330;9.104;2023-02-20T20:00:18;101114.44;;;9.65;100.00
3132;BME280;62090;52.330;9.104;2023-02-20T20:02:49;101112.63;;;9.63;100.00
3132;BME280;62090;52.330;9.104;2023-02-20T20:05:20;101136.72;;;9.72;100.00
3132;BME280;62090;52.330;9.104;2023-02-20T20:07:50;101136.97;;;9.80;100.00
3132;BME280;62090;52.330;9.104;2023-02-20T20:10:21;101133.72;;;9.84;100.00
3132;BME280;62090;52.330;9.104;2023-02-20T20:12:56;101128.03;;;9.91;100.00
3132;BME280;62090;52.330;9.104;2023-02-20T20:15:26;101112.44;;;9.57;100.00
3132;BME280;62090;52.330;9.104;2023-02-20T20:17:57;101136.91;;;9.79;100.00
3132;BME280;62090;52.330;9.104;2023-02-20T20:20:29;101126.88;;;9.58;100.00
3132;BME280;62090;52.330;9.104;2023-02-20T20:23:02;101128.31;;;9.75;100.00
3132;BME280;62090;52.330;9.104;2023-02-20T20:25:33;101120.09;;;9.82;100.00
3132;BME280;62090;52.330;9.104;2023-02-20T20:28:05;101134.88;;;9.68;100.00
3132;BME280;62090;52.330;9.104;2023-02-20T20:30:36;101134.50;;;9.82;100.00
3132;BME280;62090;52.330;9.104;2023-02-20T20:33:10;101148.09;;;9.82;100.00
3132;BME280;62090;52.330;9.104;2023-02-20T20:35:44;101127.09;;;9.64;100.00
3132;BME280;62090;52.330;9.104;2023-02-20T20:38:13;101132.31;;;9.67;100.00
3132;BME280;62090;52.330;9.104;2023-02-20T20:40:43;101148.28;;;9.88;100.00
3132;BME280;62090;52.330;9.104;2023-02-20T20:43:16;101084.41;;;9.55;100.00
3132;BME280;62090;52.330;9.104;2023-02-20T20:45:45;101142.06;;;9.80;100.00
3132;BME280;62090;52.330;9.104;2023-02-20T20:48:15;101101.59;;;9.62;100.00
3132;BME280;62090;52.330;9.104;2023-02-20T20:50:45;101135.56;;;9.88;100.00
3132;BME280;62090;52.330;9.104;2023-02-20T20:53:15;101139.81;;;9.89;100.00
3132;BME280;62090;52.330;9.104;2023-02-20T20:55:45;101071.69;;;9.55;100.00
3132;BME280;62090;52.330;9.104;2023-02-20T20:58:17;101110.06;;;9.87;100.00
3132;BME280;62090;52.330;9.104;2023-02-20T21:00:47;101130.13;;;10.03;100.00
3132;BME280;62090;52.330;9.104;2023-02-20T21:03:17;101149.97;;;10.13;100.00
3132;BME280;62090;52.330;9.104;2023-02-20T21:05:47;101142.13;;;10.07;100.00
3132;BME280;62090;52.330;9.104;2023-02-20T21:08:17;101143.78;;;10.06;100.00
3132;BME280;62090;52.330;9.104;2023-02-20T21:10:47;101127.28;;;9.95;100.00
3132;BME280;62090;52.330;9.104;2023-02-20T21:13:19;101129.03;;;9.96;100.00
3132;BME280;62090;52.330;9.104;2023-02-20T21:15:49;101143.72;;;10.03;100.00
3132;BME280;62090;52.330;9.104;2023-02-20T21:18:18;101135.94;;;10.00;100.00
3132;BME280;62090;52.330;9.104;2023-02-20T21:20:49;101135.59;;;9.90;100.00
3132;BME280;62090;52.330;9.104;2023-02-20T21:23:18;101134.22;;;9.99;100.00
3132;BME280;62090;52.330;9.104;2023-02-20T21:25:48;101137.81;;;10.04;100.00
3132;BME280;62090;52.330;9.104;2023-02-20T21:28:20;101126.03;;;10.08;100.00
3132;BME280;62090;52.330;9.104;2023-02-20T21:30:50;101119.06;;;10.02;100.00
3132;BME280;62090;52.330;9.104;2023-02-20T21:33:19;101131.88;;;10.05;100.00
3132;BME280;62090;52.330;9.104;2023-02-20T21:35:49;101090.56;;;9.87;100.00
3132;BME280;62090;52.330;9.104;2023-02-20T21:38:19;101093.09;;;9.87;100.00
3132;BME280;62090;52.330;9.104;2023-02-20T21:40:48;101114.56;;;9.95;100.00
3132;BME280;62090;52.330;9.104;2023-02-20T21:43:20;101122.63;;;10.07;100.00
3132;BME280;62090;52.330;9.104;2023-02-20T21:46:02;101121.47;;;9.99;100.00
3132;BME280;62090;52.330;9.104;2023-02-20T21:48:32;101110.28;;;9.94;100.00
3132;BME280;62090;52.330;9.104;2023-02-20T21:51:02;101104.91;;;9.85;100.00
3132;BME280;62090;52.330;9.104;2023-02-20T21:53:31;101119.66;;;9.95;100.00
3132;BME280;62090;52.330;9.104;2023-02-20T21:56:01;101124.59;;;9.91;100.00
3132;BME280;62090;52.330;9.104;2023-02-20T21:58:33;101112.25;;;9.76;100.00
3132;BME280;62090;52.330;9.104;2023-02-20T22:01:16;101115.09;;;9.85;100.00
3132;BME280;62090;52.330;9.104;2023-02-20T22:03:42;101133.19;;;9.94;100.00
3132;BME280;62090;52.330;9.104;2023-02-20T22:06:09;101137.63;;;10.00;100.00
3132;BME280;62090;52.330;9.104;2023-02-20T22:08:36;101138.81;;;10.09;100.00
3132;BME280;62090;52.330;9.104;2023-02-20T22:11:18;101124.00;;;9.98;100.00
3132;BME280;62090;52.330;9.104;2023-02-20T22:14:03;101118.13;;;10.00;100.00
3132;BME280;62090;52.330;9.104;2023-02-20T22:16:45;101122.31;;;9.98;100.00
3132;BME280;62090;52.330;9.104;2023-02-20T22:19:27;101131.13;;;10.08;100.00
3132;BME280;62090;52.330;9.104;2023-02-20T22:22:09;101119.47;;;9.89;100.00
3132;BME280;62090;52.330;9.104;2023-02-20T22:24:52;101082.00;;;9.60;100.00
3132;BME280;62090;52.330;9.104;2023-02-20T22:27:34;101140.03;;;9.95;100.00
3132;BME280;62090;52.330;9.104;2023-02-20T22:30:19;101112.53;;;9.85;100.00
3132;BME280;62090;52.330;9.104;2023-02-20T22:33:01;101140.03;;;9.95;100.00
3132;BME280;62090;52.330;9.104;2023-02-20T22:35:43;101123.81;;;9.92;100.00
3132;BME280;62090;52.330;9.104;2023-02-20T22:38:26;101111.66;;;9.83;100.00
3132;BME280;62090;52.330;9.104;2023-02-20T22:41:08;101128.31;;;10.00;100.00
3132;BME280;62090;52.330;9.104;2023-02-20T22:43:50;101122.19;;;9.94;100.00
3132;BME280;62090;52.330;9.104;2023-02-20T22:46:35;101068.84;;;9.71;100.00
3132;BME280;62090;52.330;9.104;2023-02-20T22:49:17;101071.06;;;9.62;100.00
3132;BME280;62090;52.330;9.104;2023-02-20T22:51:59;101000.09;;;9.19;100.00
3132;BME280;62090;52.330;9.104;2023-02-20T22:54:41;101108.22;;;9.83;100.00
3132;BME280;62090;52.330;9.104;2023-02-20T22:57:31;101112.47;;;9.82;100.00
3132;BME280;62090;52.330;9.104;2023-02-20T23:00:13;101130.06;;;10.01;100.00
3132;BME280;62090;52.330;9.104;2023-02-20T23:02:58;101135.44;;;10.10;100.00
3132;BME280;62090;52.330;9.104;2023-02-20T23:05:40;101135.94;;;9.99;100.00
3132;BME280;62090;52.330;9.104;2023-02-20T23:08:30;101137.84;;;10.06;100.00
3132;BME280;62090;52.330;9.104;2023-02-20T23:11:12;101063.34;;;9.59;100.00
3132;BME280;62090;52.330;9.104;2023-02-20T23:13:54;101137.97;;;10.10;100.00
3132;BME280;62090;52.330;9.104;2023-02-20T23:16:37;101089.53;;;9.82;100.00
3132;BME280;62090;52.330;9.104;2023-02-20T23:19:21;101136.44;;;10.15;100.00
3132;BME280;62090;52.330;9.104;2023-02-20T23:22:03;101140.69;;;10.15;100.00
3132;BME280;62090;52.330;9.104;2023-02-20T23:24:46;101142.38;;;10.14;100.00
3132;BME280;62090;52.330;9.104;2023-02-20T23:27:28;101139.72;;;10.11;100.00
3132;BME280;62090;52.330;9.104;2023-02-20T23:30:11;101138.91;;;10.12;100.00
3132;BME280;62090;52.330;9.104;2023-02-20T23:32:54;101086.78;;;9.76;100.00
3132;BME280;62090;52.330;9.104;2023-02-20T23:35:40;101143.44;;;10.21;100.00
3132;BME280;62090;52.330;9.104;2023-02-20T23:38:22;101120.06;;;10.07;100.00
3132;BME280;62090;52.330;9.104;2023-02-20T23:41:05;101116.56;;;10.04;100.00
3132;BME280;62090;52.330;9.104;2023-02-20T23:43:48;101119.66;;;9.95;100.00
3132;BME280;62090;52.330;9.104;2023-02-20T23:46:31;101130.34;;;10.10;100.00
3132;BME280;62090;52.330;9.104;2023-02-20T23:49:14;101130.16;;;10.04;100.00
3132;BME280;62090;52.330;9.104;2023-02-20T23:52:00;101122.31;;;10.24;100.00
3132;BME280;62090;52.330;9.104;2023-02-20T23:54:43;101135.88;;;10.23;100.00
3132;BME280;62090;52.330;9.104;2023-02-20T23:57:25;101117.25;;;10.00;100.00
